Startpagina
METAR-TAF:

METAR-TAF

Vliegvelden :

Aeroporto Internacional do Recife

Recife, Pernambuco, Brazilië

breedte: 08-08S, lengte: 034-55W, hoogte: 19 m

Actueel weer

Dit bericht is 1 uur en het 2 minuten geleden gemaakt, om 05:00 UTC
Wind 5 kt uit het oostnoordoosten
Temperatuur 25°C
Vochtigheid 79%
Druk 1009 hPa
Zicht 10 km of meer
Verspreide wolken op 2000 ft

METAR: SBRF 200500Z 06005KT 9999 SCT020 25/21 Q1009

Tijdstip: 03:02 (06:02 UTC)

Verwachting

Dit bericht is 4 uur en het 2 minuten geleden gemaakt, om 02:00 UTC
Verwachting geldig van 20 om 06 UTC tot 21 om 06 UTC
Wind 8 kt uit het oosten
Zicht: 8000 m
Verspreide wolken op 2000 ft

TAF: SBRF 200200Z 2006/2106 08008KT 8000 SCT020 TN25/2008Z TX28/2015Z RMK PEA

Waarnemingen en weersverwachtingen van meer dan 4000 vliegvelden (METAR en TAF).

De beschikbare stations zijn de gele en rode punten op de kaart.

Ga met uw muis naar het station om de naam te zien.

Klik dan om waarnemingen en weersverwachtingen te zien.

kaart wijzigen: klik op de groene knoppen met een zwart kruis om in te zoomen, op de groene knop met een streepje om uit te zoomen of op de groene pijlen voor aangrenzende kaarten.


METAR-TAF: